sensor_id;sensor_type;location;lat;lon;timestamp;temperature;humidity
25188;DHT22;13141;50.414;8.050;2022-12-29T00:01:32;12.30;99.90
25188;DHT22;13141;50.414;8.050;2022-12-29T00:03:59;12.30;99.90
25188;DHT22;13141;50.414;8.050;2022-12-29T00:06:25;12.20;99.90
25188;DHT22;13141;50.414;8.050;2022-12-29T00:08:50;12.30;99.90
25188;DHT22;13141;50.414;8.050;2022-12-29T00:11:19;12.50;99.90
25188;DHT22;13141;50.414;8.050;2022-12-29T00:13:44;12.30;99.90
25188;DHT22;13141;50.414;8.050;2022-12-29T00:16:29;12.40;99.90
25188;DHT22;13141;50.414;8.050;2022-12-29T00:18:55;12.40;99.90
25188;DHT22;13141;50.414;8.050;2022-12-29T00:21:22;12.20;99.90
25188;DHT22;13141;50.414;8.050;2022-12-29T00:24:12;12.00;99.90
25188;DHT22;13141;50.414;8.050;2022-12-29T00:29:47;12.20;99.90
25188;DHT22;13141;50.414;8.050;2022-12-29T00:32:31;12.00;99.90
25188;DHT22;13141;50.414;8.050;2022-12-29T00:35:35;11.90;99.90
25188;DHT22;13141;50.414;8.050;2022-12-29T00:38:05;12.10;99.90
25188;DHT22;13141;50.414;8.050;2022-12-29T00:40:51;12.00;99.90
25188;DHT22;13141;50.414;8.050;2022-12-29T00:43:35;11.80;99.90
25188;DHT22;13141;50.414;8.050;2022-12-29T00:46:20;11.60;99.90
25188;DHT22;13141;50.414;8.050;2022-12-29T00:48:45;11.60;99.90
25188;DHT22;13141;50.414;8.050;2022-12-29T00:51:29;11.50;99.90
25188;DHT22;13141;50.414;8.050;2022-12-29T00:53:55;11.50;99.90
25188;DHT22;13141;50.414;8.050;2022-12-29T00:56:21;11.40;99.90
25188;DHT22;13141;50.414;8.050;2022-12-29T00:58:46;11.30;99.90
25188;DHT22;13141;50.414;8.050;2022-12-29T01:01:12;11.30;99.90
25188;DHT22;13141;50.414;8.050;2022-12-29T01:03:38;11.30;99.90
25188;DHT22;13141;50.414;8.050;2022-12-29T01:06:06;11.20;99.90
25188;DHT22;13141;50.414;8.050;2022-12-29T01:08:31;11.30;99.90
25188;DHT22;13141;50.414;8.050;2022-12-29T01:11:02;11.30;99.90
25188;DHT22;13141;50.414;8.050;2022-12-29T01:13:28;11.30;99.90
25188;DHT22;13141;50.414;8.050;2022-12-29T01:15:55;11.30;99.90
25188;DHT22;13141;50.414;8.050;2022-12-29T01:18:21;11.20;99.90
25188;DHT22;13141;50.414;8.050;2022-12-29T01:20:46;11.30;99.90
25188;DHT22;13141;50.414;8.050;2022-12-29T01:23:12;11.30;99.90
25188;DHT22;13141;50.414;8.050;2022-12-29T01:25:38;11.30;99.90
25188;DHT22;13141;50.414;8.050;2022-12-29T01:28:03;11.40;99.90
25188;DHT22;13141;50.414;8.050;2022-12-29T01:30:29;11.50;99.90
25188;DHT22;13141;50.414;8.050;2022-12-29T01:32:54;11.40;99.90
25188;DHT22;13141;50.414;8.050;2022-12-29T01:35:20;11.50;99.90
25188;DHT22;13141;50.414;8.050;2022-12-29T01:37:46;11.40;99.90
25188;DHT22;13141;50.414;8.050;2022-12-29T01:40:11;11.20;99.90
25188;DHT22;13141;50.414;8.050;2022-12-29T01:42:37;11.40;99.90
25188;DHT22;13141;50.414;8.050;2022-12-29T01:45:09;11.40;99.90
25188;DHT22;13141;50.414;8.050;2022-12-29T01:47:57;11.40;99.90
25188;DHT22;13141;50.414;8.050;2022-12-29T01:50:32;11.50;99.90
25188;DHT22;13141;50.414;8.050;2022-12-29T01:53:10;11.40;99.90
25188;DHT22;13141;50.414;8.050;2022-12-29T01:55:44;11.40;99.90
25188;DHT22;13141;50.414;8.050;2022-12-29T01:58:11;11.40;99.90
25188;DHT22;13141;50.414;8.050;2022-12-29T02:00:38;11.30;99.90
25188;DHT22;13141;50.414;8.050;2022-12-29T02:03:06;11.30;99.90
25188;DHT22;13141;50.414;8.050;2022-12-29T02:05:42;11.30;99.90
25188;DHT22;13141;50.414;8.050;2022-12-29T02:08:11;11.40;99.90
25188;DHT22;13141;50.414;8.050;2022-12-29T02:10:37;11.30;99.90
25188;DHT22;13141;50.414;8.050;2022-12-29T02:13:04;11.30;99.90
25188;DHT22;13141;50.414;8.050;2022-12-29T02:15:55;11.30;99.90
25188;DHT22;13141;50.414;8.050;2022-12-29T02:29:23;11.40;99.90
25188;DHT22;13141;50.414;8.050;2022-12-29T02:32:05;11.40;99.90
25188;DHT22;13141;50.414;8.050;2022-12-29T02:34:47;11.40;99.90
25188;DHT22;13141;50.414;8.050;2022-12-29T02:37:26;11.40;99.90
25188;DHT22;13141;50.414;8.050;2022-12-29T02:39:57;11.40;99.90
25188;DHT22;13141;50.414;8.050;2022-12-29T02:42:59;11.40;99.90
25188;DHT22;13141;50.414;8.050;2022-12-29T02:51:04;11.20;99.90
25188;DHT22;13141;50.414;8.050;2022-12-29T02:53:34;11.10;99.90
25188;DHT22;13141;50.414;8.050;2022-12-29T02:56:20;11.00;99.90
25188;DHT22;13141;50.414;8.050;2022-12-29T02:58:46;11.00;99.90
25188;DHT22;13141;50.414;8.050;2022-12-29T03:04:39;10.90;99.90
25188;DHT22;13141;50.414;8.050;2022-12-29T03:07:24;11.00;99.90
25188;DHT22;13141;50.414;8.050;2022-12-29T03:10:11;11.00;99.90
25188;DHT22;13141;50.414;8.050;2022-12-29T03:12:48;11.00;99.90
25188;DHT22;13141;50.414;8.050;2022-12-29T03:18:48;10.80;99.90
25188;DHT22;13141;50.414;8.050;2022-12-29T03:21:31;10.80;99.90
25188;DHT22;13141;50.414;8.050;2022-12-29T03:24:18;10.70;99.90
25188;DHT22;13141;50.414;8.050;2022-12-29T03:26:47;10.60;99.90
25188;DHT22;13141;50.414;8.050;2022-12-29T03:29:13;10.60;99.90
25188;DHT22;13141;50.414;8.050;2022-12-29T03:31:40;10.60;99.90
25188;DHT22;13141;50.414;8.050;2022-12-29T03:34:08;10.70;99.90
25188;DHT22;13141;50.414;8.050;2022-12-29T03:36:53;10.70;99.90
25188;DHT22;13141;50.414;8.050;2022-12-29T03:39:22;10.70;99.90
25188;DHT22;13141;50.414;8.050;2022-12-29T03:41:50;10.80;99.90
25188;DHT22;13141;50.414;8.050;2022-12-29T03:44:20;10.80;99.90
25188;DHT22;13141;50.414;8.050;2022-12-29T03:46:46;10.80;99.90
25188;DHT22;13141;50.414;8.050;2022-12-29T03:49:11;10.80;99.90
25188;DHT22;13141;50.414;8.050;2022-12-29T03:51:37;10.90;99.90
25188;DHT22;13141;50.414;8.050;2022-12-29T03:54:02;10.90;99.90
25188;DHT22;13141;50.414;8.050;2022-12-29T03:56:28;10.90;99.90
25188;DHT22;13141;50.414;8.050;2022-12-29T03:58:54;11.00;99.90
25188;DHT22;13141;50.414;8.050;2022-12-29T04:01:19;10.90;99.90
25188;DHT22;13141;50.414;8.050;2022-12-29T04:03:45;11.00;99.90
25188;DHT22;13141;50.414;8.050;2022-12-29T04:06:10;11.00;99.90
25188;DHT22;13141;50.414;8.050;2022-12-29T04:08:36;11.00;99.90
25188;DHT22;13141;50.414;8.050;2022-12-29T04:11:01;11.00;99.90
25188;DHT22;13141;50.414;8.050;2022-12-29T04:13:27;11.10;99.90
25188;DHT22;13141;50.414;8.050;2022-12-29T04:15:53;11.10;99.90
25188;DHT22;13141;50.414;8.050;2022-12-29T04:18:18;11.10;99.90
25188;DHT22;13141;50.414;8.050;2022-12-29T04:20:44;11.20;99.90
25188;DHT22;13141;50.414;8.050;2022-12-29T04:23:25;11.10;99.90
25188;DHT22;13141;50.414;8.050;2022-12-29T04:25:51;11.10;99.90
25188;DHT22;13141;50.414;8.050;2022-12-29T04:28:17;11.10;99.90
25188;DHT22;13141;50.414;8.050;2022-12-29T04:30:45;11.10;99.90
25188;DHT22;13141;50.414;8.050;2022-12-29T04:33:12;11.10;99.90
25188;DHT22;13141;50.414;8.050;2022-12-29T04:35:38;11.10;99.90
25188;DHT22;13141;50.414;8.050;2022-12-29T04:38:03;11.20;99.90
25188;DHT22;13141;50.414;8.050;2022-12-29T04:40:29;11.10;99.90
25188;DHT22;13141;50.414;8.050;2022-12-29T04:42:55;11.20;99.90
25188;DHT22;13141;50.414;8.050;2022-12-29T04:45:20;11.20;99.90
25188;DHT22;13141;50.414;8.050;2022-12-29T04:47:46;11.20;99.90
25188;DHT22;13141;50.414;8.050;2022-12-29T04:50:12;11.20;99.90
25188;DHT22;13141;50.414;8.050;2022-12-29T04:52:38;11.20;99.90
25188;DHT22;13141;50.414;8.050;2022-12-29T04:55:05;11.10;99.90
25188;DHT22;13141;50.414;8.050;2022-12-29T04:57:31;11.20;99.90
25188;DHT22;13141;50.414;8.050;2022-12-29T04:59:56;11.20;99.90
25188;DHT22;13141;50.414;8.050;2022-12-29T05:02:22;11.30;99.90
25188;DHT22;13141;50.414;8.050;2022-12-29T05:04:48;11.20;99.90
25188;DHT22;13141;50.414;8.050;2022-12-29T05:07:13;11.20;99.90
25188;DHT22;13141;50.414;8.050;2022-12-29T05:09:39;11.20;99.90
25188;DHT22;13141;50.414;8.050;2022-12-29T05:12:04;11.20;99.90
25188;DHT22;13141;50.414;8.050;2022-12-29T05:14:30;11.30;99.90
25188;DHT22;13141;50.414;8.050;2022-12-29T05:16:55;11.30;99.90
25188;DHT22;13141;50.414;8.050;2022-12-29T05:19:21;11.30;99.90
25188;DHT22;13141;50.414;8.050;2022-12-29T05:21:47;11.30;99.90
25188;DHT22;13141;50.414;8.050;2022-12-29T05:24:12;11.40;99.90
25188;DHT22;13141;50.414;8.050;2022-12-29T05:26:38;11.40;99.90
25188;DHT22;13141;50.414;8.050;2022-12-29T05:29:03;11.40;99.90
25188;DHT22;13141;50.414;8.050;2022-12-29T05:31:29;11.40;99.90
25188;DHT22;13141;50.414;8.050;2022-12-29T05:33:54;11.40;99.90
25188;DHT22;13141;50.414;8.050;2022-12-29T05:36:20;11.50;99.90
25188;DHT22;13141;50.414;8.050;2022-12-29T05:38:46;11.20;99.90
25188;DHT22;13141;50.414;8.050;2022-12-29T05:41:11;11.50;99.90
25188;DHT22;13141;50.414;8.050;2022-12-29T05:43:37;11.50;99.90
25188;DHT22;13141;50.414;8.050;2022-12-29T05:46:03;11.50;99.90
25188;DHT22;13141;50.414;8.050;2022-12-29T05:48:28;11.50;99.90
25188;DHT22;13141;50.414;8.050;2022-12-29T05:50:54;11.50;99.90
25188;DHT22;13141;50.414;8.050;2022-12-29T05:53:19;11.50;99.90
25188;DHT22;13141;50.414;8.050;2022-12-29T05:55:47;11.50;99.90
25188;DHT22;13141;50.414;8.050;2022-12-29T05:58:13;11.50;99.90
25188;DHT22;13141;50.414;8.050;2022-12-29T06:00:38;11.60;99.90
25188;DHT22;13141;50.414;8.050;2022-12-29T06:03:04;11.60;99.90
25188;DHT22;13141;50.414;8.050;2022-12-29T06:05:30;11.60;99.90
25188;DHT22;13141;50.414;8.050;2022-12-29T06:07:55;11.60;99.90
25188;DHT22;13141;50.414;8.050;2022-12-29T06:10:21;11.60;99.90
25188;DHT22;13141;50.414;8.050;2022-12-29T06:12:47;11.60;99.90
25188;DHT22;13141;50.414;8.050;2022-12-29T06:15:13;12.00;99.90
25188;DHT22;13141;50.414;8.050;2022-12-29T06:17:39;11.70;99.90
25188;DHT22;13141;50.414;8.050;2022-12-29T06:20:06;11.80;99.90
25188;DHT22;13141;50.414;8.050;2022-12-29T06:22:32;11.80;99.90
25188;DHT22;13141;50.414;8.050;2022-12-29T06:24:57;11.80;99.90
25188;DHT22;13141;50.414;8.050;2022-12-29T06:27:23;11.80;99.90
25188;DHT22;13141;50.414;8.050;2022-12-29T06:29:49;11.70;99.90
25188;DHT22;13141;50.414;8.050;2022-12-29T06:32:15;11.80;99.90
25188;DHT22;13141;50.414;8.050;2022-12-29T06:34:40;11.70;99.90
25188;DHT22;13141;50.414;8.050;2022-12-29T06:37:07;11.70;99.90
25188;DHT22;13141;50.414;8.050;2022-12-29T06:39:33;11.70;99.90
25188;DHT22;13141;50.414;8.050;2022-12-29T06:41:58;11.80;99.90
25188;DHT22;13141;50.414;8.050;2022-12-29T06:44:24;11.90;99.90
25188;DHT22;13141;50.414;8.050;2022-12-29T06:46:50;11.70;99.90
25188;DHT22;13141;50.414;8.050;2022-12-29T06:49:16;11.60;99.90
25188;DHT22;13141;50.414;8.050;2022-12-29T06:51:41;11.80;99.90
25188;DHT22;13141;50.414;8.050;2022-12-29T06:54:07;11.80;99.90
25188;DHT22;13141;50.414;8.050;2022-12-29T06:56:32;11.80;99.90
25188;DHT22;13141;50.414;8.050;2022-12-29T06:58:58;11.90;99.90
25188;DHT22;13141;50.414;8.050;2022-12-29T07:01:26;11.70;99.90
25188;DHT22;13141;50.414;8.050;2022-12-29T07:03:52;11.70;99.90
25188;DHT22;13141;50.414;8.050;2022-12-29T07:06:18;11.80;99.90
25188;DHT22;13141;50.414;8.050;2022-12-29T07:08:43;11.80;99.90
25188;DHT22;13141;50.414;8.050;2022-12-29T07:11:09;11.70;99.90
25188;DHT22;13141;50.414;8.050;2022-12-29T07:13:36;11.70;99.90
25188;DHT22;13141;50.414;8.050;2022-12-29T07:16:09;11.70;99.90
25188;DHT22;13141;50.414;8.050;2022-12-29T07:18:35;11.70;99.90
25188;DHT22;13141;50.414;8.050;2022-12-29T07:21:01;11.60;99.90
25188;DHT22;13141;50.414;8.050;2022-12-29T07:23:27;11.70;99.90
25188;DHT22;13141;50.414;8.050;2022-12-29T07:26:00;11.70;99.90
25188;DHT22;13141;50.414;8.050;2022-12-29T07:28:26;11.90;99.90
25188;DHT22;13141;50.414;8.050;2022-12-29T07:30:52;11.80;99.90
25188;DHT22;13141;50.414;8.050;2022-12-29T07:33:17;11.80;99.90
25188;DHT22;13141;50.414;8.050;2022-12-29T07:35:43;11.80;99.90
25188;DHT22;13141;50.414;8.050;2022-12-29T07:38:08;11.80;99.90
25188;DHT22;13141;50.414;8.050;2022-12-29T07:40:34;11.80;99.90
25188;DHT22;13141;50.414;8.050;2022-12-29T07:43:00;12.00;99.90
25188;DHT22;13141;50.414;8.050;2022-12-29T07:45:25;11.80;99.90
25188;DHT22;13141;50.414;8.050;2022-12-29T07:47:51;12.00;99.90
25188;DHT22;13141;50.414;8.050;2022-12-29T07:50:16;11.90;99.90
25188;DHT22;13141;50.414;8.050;2022-12-29T07:52:42;11.90;99.90
25188;DHT22;13141;50.414;8.050;2022-12-29T07:55:09;12.00;99.90
25188;DHT22;13141;50.414;8.050;2022-12-29T07:57:35;11.90;99.90
25188;DHT22;13141;50.414;8.050;2022-12-29T08:00:00;11.90;99.90
25188;DHT22;13141;50.414;8.050;2022-12-29T08:02:26;11.80;99.90
25188;DHT22;13141;50.414;8.050;2022-12-29T08:04:52;11.70;99.90
25188;DHT22;13141;50.414;8.050;2022-12-29T08:07:17;11.70;99.90
25188;DHT22;13141;50.414;8.050;2022-12-29T08:09:43;11.90;99.90
25188;DHT22;13141;50.414;8.050;2022-12-29T08:12:10;11.60;99.90
25188;DHT22;13141;50.414;8.050;2022-12-29T08:14:36;11.60;99.90
25188;DHT22;13141;50.414;8.050;2022-12-29T08:17:02;11.60;99.90
25188;DHT22;13141;50.414;8.050;2022-12-29T08:19:27;11.60;99.90
25188;DHT22;13141;50.414;8.050;2022-12-29T08:21:53;11.60;99.90
25188;DHT22;13141;50.414;8.050;2022-12-29T08:24:19;11.50;99.90
25188;DHT22;13141;50.414;8.050;2022-12-29T08:26:44;11.50;99.90
25188;DHT22;13141;50.414;8.050;2022-12-29T08:29:10;11.60;99.90
25188;DHT22;13141;50.414;8.050;2022-12-29T08:31:36;11.70;99.90
25188;DHT22;13141;50.414;8.050;2022-12-29T08:34:02;11.60;99.90
25188;DHT22;13141;50.414;8.050;2022-12-29T08:36:29;11.70;99.90
25188;DHT22;13141;50.414;8.050;2022-12-29T08:38:56;11.60;99.90
25188;DHT22;13141;50.414;8.050;2022-12-29T08:41:22;11.50;99.90
25188;DHT22;13141;50.414;8.050;2022-12-29T08:43:49;11.60;99.90
25188;DHT22;13141;50.414;8.050;2022-12-29T08:46:15;11.50;99.90
25188;DHT22;13141;50.414;8.050;2022-12-29T08:48:41;11.40;99.90
25188;DHT22;13141;50.414;8.050;2022-12-29T08:51:07;11.40;99.90
25188;DHT22;13141;50.414;8.050;2022-12-29T08:53:34;11.50;99.90
25188;DHT22;13141;50.414;8.050;2022-12-29T08:56:00;11.60;99.90
25188;DHT22;13141;50.414;8.050;2022-12-29T08:58:26;11.60;99.90
25188;DHT22;13141;50.414;8.050;2022-12-29T09:00:53;11.60;99.90
25188;DHT22;13141;50.414;8.050;2022-12-29T09:03:19;11.60;99.90
25188;DHT22;13141;50.414;8.050;2022-12-29T09:05:48;11.60;99.90
25188;DHT22;13141;50.414;8.050;2022-12-29T09:08:14;11.60;99.90
25188;DHT22;13141;50.414;8.050;2022-12-29T09:10:40;11.60;99.90
25188;DHT22;13141;50.414;8.050;2022-12-29T09:13:05;11.70;99.90
25188;DHT22;13141;50.414;8.050;2022-12-29T09:15:31;11.60;99.90
25188;DHT22;13141;50.414;8.050;2022-12-29T09:17:57;11.60;99.90
25188;DHT22;13141;50.414;8.050;2022-12-29T09:20:22;11.60;99.90
25188;DHT22;13141;50.414;8.050;2022-12-29T09:22:48;11.60;99.90
25188;DHT22;13141;50.414;8.050;2022-12-29T09:25:14;11.60;99.90
25188;DHT22;13141;50.414;8.050;2022-12-29T09:27:40;11.60;99.90
25188;DHT22;13141;50.414;8.050;2022-12-29T09:30:08;11.70;99.90
25188;DHT22;13141;50.414;8.050;2022-12-29T09:32:34;11.80;99.90
25188;DHT22;13141;50.414;8.050;2022-12-29T09:35:00;11.80;99.90
25188;DHT22;13141;50.414;8.050;2022-12-29T09:37:26;12.00;99.90
25188;DHT22;13141;50.414;8.050;2022-12-29T09:39:52;11.80;99.90
25188;DHT22;13141;50.414;8.050;2022-12-29T09:42:52;11.70;99.90
25188;DHT22;13141;50.414;8.050;2022-12-29T09:45:28;11.70;99.90
25188;DHT22;13141;50.414;8.050;2022-12-29T09:47:54;11.70;99.90
25188;DHT22;13141;50.414;8.050;2022-12-29T09:50:33;11.80;99.90
25188;DHT22;13141;50.414;8.050;2022-12-29T09:55:41;11.80;99.90
25188;DHT22;13141;50.414;8.050;2022-12-29T09:58:24;11.60;99.90
25188;DHT22;13141;50.414;8.050;2022-12-29T10:01:19;11.70;99.90
25188;DHT22;13141;50.414;8.050;2022-12-29T10:03:49;11.80;99.90
25188;DHT22;13141;50.414;8.050;2022-12-29T10:06:26;11.80;99.90
25188;DHT22;13141;50.414;8.050;2022-12-29T10:08:58;11.90;99.90
25188;DHT22;13141;50.414;8.050;2022-12-29T10:25:02;11.90;99.90
25188;DHT22;13141;50.414;8.050;2022-12-29T10:27:35;11.90;99.90
25188;DHT22;13141;50.414;8.050;2022-12-29T10:30:02;11.90;99.90
25188;DHT22;13141;50.414;8.050;2022-12-29T10:32:39;11.70;99.90
25188;DHT22;13141;50.414;8.050;2022-12-29T10:35:29;11.60;99.90
25188;DHT22;13141;50.414;8.050;2022-12-29T10:41:02;11.60;99.90
25188;DHT22;13141;50.414;8.050;2022-12-29T10:43:47;11.50;99.90
25188;DHT22;13141;50.414;8.050;2022-12-29T10:46:17;11.50;99.90
25188;DHT22;13141;50.414;8.050;2022-12-29T10:48:44;11.60;99.90
25188;DHT22;13141;50.414;8.050;2022-12-29T10:51:38;11.60;99.90
25188;DHT22;13141;50.414;8.050;2022-12-29T10:54:11;11.60;99.90
25188;DHT22;13141;50.414;8.050;2022-12-29T10:56:46;11.70;99.90
25188;DHT22;13141;50.414;8.050;2022-12-29T10:59:24;11.50;99.90
25188;DHT22;13141;50.414;8.050;2022-12-29T11:07:29;11.60;99.90
25188;DHT22;13141;50.414;8.050;2022-12-29T11:09:56;11.60;99.90
25188;DHT22;13141;50.414;8.050;2022-12-29T11:12:40;11.60;99.90
25188;DHT22;13141;50.414;8.050;2022-12-29T11:17:50;11.60;99.90
25188;DHT22;13141;50.414;8.050;2022-12-29T11:20:27;11.70;99.90
25188;DHT22;13141;50.414;8.050;2022-12-29T11:22:54;11.60;99.90
25188;DHT22;13141;50.414;8.050;2022-12-29T11:25:20;11.70;99.90
25188;DHT22;13141;50.414;8.050;2022-12-29T11:28:15;11.70;99.90
25188;DHT22;13141;50.414;8.050;2022-12-29T11:30:41;11.80;99.90
25188;DHT22;13141;50.414;8.050;2022-12-29T11:33:09;12.00;99.90
25188;DHT22;13141;50.414;8.050;2022-12-29T11:35:42;11.50;99.90
25188;DHT22;13141;50.414;8.050;2022-12-29T11:38:20;11.90;99.90
25188;DHT22;13141;50.414;8.050;2022-12-29T11:40:47;11.90;99.90
25188;DHT22;13141;50.414;8.050;2022-12-29T11:43:36;12.00;99.90
25188;DHT22;13141;50.414;8.050;2022-12-29T11:46:03;12.10;99.90
25188;DHT22;13141;50.414;8.050;2022-12-29T11:48:33;12.20;99.90
25188;DHT22;13141;50.414;8.050;2022-12-29T11:51:03;11.90;99.90
25188;DHT22;13141;50.414;8.050;2022-12-29T11:53:38;12.20;99.90
25188;DHT22;13141;50.414;8.050;2022-12-29T11:56:08;12.30;99.90
25188;DHT22;13141;50.414;8.050;2022-12-29T11:58:37;12.20;99.90
25188;DHT22;13141;50.414;8.050;2022-12-29T12:01:25;12.40;99.90
25188;DHT22;13141;50.414;8.050;2022-12-29T12:04:07;12.40;99.90
25188;DHT22;13141;50.414;8.050;2022-12-29T12:06:43;12.50;99.90
25188;DHT22;13141;50.414;8.050;2022-12-29T12:09:35;12.40;99.90
25188;DHT22;13141;50.414;8.050;2022-12-29T12:12:03;12.60;99.90
25188;DHT22;13141;50.414;8.050;2022-12-29T12:14:35;12.30;99.90
25188;DHT22;13141;50.414;8.050;2022-12-29T12:17:09;12.50;99.90
25188;DHT22;13141;50.414;8.050;2022-12-29T12:19:59;12.40;99.90
25188;DHT22;13141;50.414;8.050;2022-12-29T12:22:31;12.50;99.90
25188;DHT22;13141;50.414;8.050;2022-12-29T12:25:04;12.40;99.90
25188;DHT22;13141;50.414;8.050;2022-12-29T12:28:02;12.40;99.90
25188;DHT22;13141;50.414;8.050;2022-12-29T12:30:37;12.60;99.90
25188;DHT22;13141;50.414;8.050;2022-12-29T12:33:35;12.70;99.90
25188;DHT22;13141;50.414;8.050;2022-12-29T12:36:30;12.70;99.90
25188;DHT22;13141;50.414;8.050;2022-12-29T12:39:11;12.90;99.90
25188;DHT22;13141;50.414;8.050;2022-12-29T12:41:49;12.80;99.90
25188;DHT22;13141;50.414;8.050;2022-12-29T12:52:52;12.80;99.90
25188;DHT22;13141;50.414;8.050;2022-12-29T12:55:47;12.90;99.90
25188;DHT22;13141;50.414;8.050;2022-12-29T13:01:27;12.70;99.90
25188;DHT22;13141;50.414;8.050;2022-12-29T13:07:12;12.70;99.90
25188;DHT22;13141;50.414;8.050;2022-12-29T13:18:35;12.70;99.90
25188;DHT22;13141;50.414;8.050;2022-12-29T13:20:45;12.80;99.90
25188;DHT22;13141;50.414;8.050;2022-12-29T13:23:26;12.80;99.90
25188;DHT22;13141;50.414;8.050;2022-12-29T13:28:56;12.90;99.90
25188;DHT22;13141;50.414;8.050;2022-12-29T13:36:57;13.10;99.90
25188;DHT22;13141;50.414;8.050;2022-12-29T13:39:47;13.10;99.90
25188;DHT22;13141;50.414;8.050;2022-12-29T13:42:14;13.10;99.90
25188;DHT22;13141;50.414;8.050;2022-12-29T13:44:46;13.10;99.90
25188;DHT22;13141;50.414;8.050;2022-12-29T13:47:57;13.50;99.90
25188;DHT22;13141;50.414;8.050;2022-12-29T13:50:26;13.50;99.90
25188;DHT22;13141;50.414;8.050;2022-12-29T13:55:55;13.30;99.90
25188;DHT22;13141;50.414;8.050;2022-12-29T13:59:14;13.20;99.90
25188;DHT22;13141;50.414;8.050;2022-12-29T14:01:43;13.10;99.90
25188;DHT22;13141;50.414;8.050;2022-12-29T14:04:22;13.00;99.90
25188;DHT22;13141;50.414;8.050;2022-12-29T14:07:00;13.00;99.90
25188;DHT22;13141;50.414;8.050;2022-12-29T14:11:57;13.50;99.90
25188;DHT22;13141;50.414;8.050;2022-12-29T14:14:25;13.30;99.90
25188;DHT22;13141;50.414;8.050;2022-12-29T14:16:53;13.60;99.90
25188;DHT22;13141;50.414;8.050;2022-12-29T14:19:24;13.50;99.90
25188;DHT22;13141;50.414;8.050;2022-12-29T14:21:55;13.50;99.90
25188;DHT22;13141;50.414;8.050;2022-12-29T14:34:53;13.70;99.90
25188;DHT22;13141;50.414;8.050;2022-12-29T14:42:41;13.10;99.90
25188;DHT22;13141;50.414;8.050;2022-12-29T14:47:46;13.10;99.90
25188;DHT22;13141;50.414;8.050;2022-12-29T14:55:37;13.00;99.90
25188;DHT22;13141;50.414;8.050;2022-12-29T14:58:07;12.90;99.90
25188;DHT22;13141;50.414;8.050;2022-12-29T15:00:38;12.90;99.90
25188;DHT22;13141;50.414;8.050;2022-12-29T15:05:52;12.80;99.90
25188;DHT22;13141;50.414;8.050;2022-12-29T15:08:26;12.80;99.90
25188;DHT22;13141;50.414;8.050;2022-12-29T15:13:35;12.60;99.90
25188;DHT22;13141;50.414;8.050;2022-12-29T15:16:01;12.60;99.90
25188;DHT22;13141;50.414;8.050;2022-12-29T15:18:32;12.50;99.90
25188;DHT22;13141;50.414;8.050;2022-12-29T15:21:03;12.50;99.90
25188;DHT22;13141;50.414;8.050;2022-12-29T15:23:32;12.40;99.90
25188;DHT22;13141;50.414;8.050;2022-12-29T15:26:04;12.40;99.90
25188;DHT22;13141;50.414;8.050;2022-12-29T15:28:43;12.40;99.90
25188;DHT22;13141;50.414;8.050;2022-12-29T15:31:22;12.50;99.90
25188;DHT22;13141;50.414;8.050;2022-12-29T15:33:53;12.40;99.90
25188;DHT22;13141;50.414;8.050;2022-12-29T15:36:21;12.30;99.90
25188;DHT22;13141;50.414;8.050;2022-12-29T15:38:48;12.40;99.90
25188;DHT22;13141;50.414;8.050;2022-12-29T15:41:40;12.20;99.90
25188;DHT22;13141;50.414;8.050;2022-12-29T15:44:29;12.10;99.90
25188;DHT22;13141;50.414;8.050;2022-12-29T15:47:01;12.00;99.90
25188;DHT22;13141;50.414;8.050;2022-12-29T15:49:27;12.00;99.90
25188;DHT22;13141;50.414;8.050;2022-12-29T15:51:52;11.90;99.90
25188;DHT22;13141;50.414;8.050;2022-12-29T15:54:20;11.90;99.90
25188;DHT22;13141;50.414;8.050;2022-12-29T15:56:47;11.90;99.90
25188;DHT22;13141;50.414;8.050;2022-12-29T16:01:54;11.20;99.90
25188;DHT22;13141;50.414;8.050;2022-12-29T16:04:21;11.70;99.90
25188;DHT22;13141;50.414;8.050;2022-12-29T16:07:04;11.60;99.90
25188;DHT22;13141;50.414;8.050;2022-12-29T16:09:35;11.60;99.90
25188;DHT22;13141;50.414;8.050;2022-12-29T16:12:17;11.60;99.90
25188;DHT22;13141;50.414;8.050;2022-12-29T16:14:47;11.70;99.90
25188;DHT22;13141;50.414;8.050;2022-12-29T16:17:18;11.60;99.90
25188;DHT22;13141;50.414;8.050;2022-12-29T16:19:51;11.50;99.90
25188;DHT22;13141;50.414;8.050;2022-12-29T16:22:38;11.60;99.90
25188;DHT22;13141;50.414;8.050;2022-12-29T16:25:28;11.50;99.90
25188;DHT22;13141;50.414;8.050;2022-12-29T16:27:56;11.50;99.90
25188;DHT22;13141;50.414;8.050;2022-12-29T16:30:30;11.40;99.90
25188;DHT22;13141;50.414;8.050;2022-12-29T16:32:59;11.40;99.90
25188;DHT22;13141;50.414;8.050;2022-12-29T16:35:26;11.40;99.90
25188;DHT22;13141;50.414;8.050;2022-12-29T16:43:24;11.30;99.90
25188;DHT22;13141;50.414;8.050;2022-12-29T16:48:20;11.10;99.90
25188;DHT22;13141;50.414;8.050;2022-12-29T16:50:46;11.20;99.90
25188;DHT22;13141;50.414;8.050;2022-12-29T16:53:25;11.10;99.90
25188;DHT22;13141;50.414;8.050;2022-12-29T16:55:53;11.10;99.90
25188;DHT22;13141;50.414;8.050;2022-12-29T16:58:24;11.10;99.90
25188;DHT22;13141;50.414;8.050;2022-12-29T17:00:56;11.00;99.90
25188;DHT22;13141;50.414;8.050;2022-12-29T17:03:23;11.00;99.90
25188;DHT22;13141;50.414;8.050;2022-12-29T17:05:53;11.00;99.90
25188;DHT22;13141;50.414;8.050;2022-12-29T17:08:20;11.00;99.90
25188;DHT22;13141;50.414;8.050;2022-12-29T17:10:51;10.90;99.90
25188;DHT22;13141;50.414;8.050;2022-12-29T17:13:36;10.90;99.90
25188;DHT22;13141;50.414;8.050;2022-12-29T17:16:02;10.90;99.90
25188;DHT22;13141;50.414;8.050;2022-12-29T17:18:28;10.90;99.90
25188;DHT22;13141;50.414;8.050;2022-12-29T17:20:53;10.90;99.90
25188;DHT22;13141;50.414;8.050;2022-12-29T17:23:19;10.90;99.90
25188;DHT22;13141;50.414;8.050;2022-12-29T17:25:45;10.90;99.90
25188;DHT22;13141;50.414;8.050;2022-12-29T17:28:19;10.80;99.90
25188;DHT22;13141;50.414;8.050;2022-12-29T17:30:46;10.80;99.90
25188;DHT22;13141;50.414;8.050;2022-12-29T17:33:17;10.80;99.90
25188;DHT22;13141;50.414;8.050;2022-12-29T17:35:43;10.70;99.90
25188;DHT22;13141;50.414;8.050;2022-12-29T17:38:21;10.60;99.90
25188;DHT22;13141;50.414;8.050;2022-12-29T17:40:48;10.60;99.90
25188;DHT22;13141;50.414;8.050;2022-12-29T17:43:15;10.60;99.90
25188;DHT22;13141;50.414;8.050;2022-12-29T17:45:42;10.50;99.90
25188;DHT22;13141;50.414;8.050;2022-12-29T17:48:15;10.40;99.90
25188;DHT22;13141;50.414;8.050;2022-12-29T17:50:42;10.40;99.90
25188;DHT22;13141;50.414;8.050;2022-12-29T17:53:14;10.40;99.90
25188;DHT22;13141;50.414;8.050;2022-12-29T17:55:40;10.40;99.90
25188;DHT22;13141;50.414;8.050;2022-12-29T17:58:19;10.40;99.90
25188;DHT22;13141;50.414;8.050;2022-12-29T18:00:47;10.40;99.90
25188;DHT22;13141;50.414;8.050;2022-12-29T18:03:18;10.30;99.90